sensor_id;sensor_type;location;lat;lon;timestamp;P1;durP1;ratioP1;P2;durP2;ratioP2
71166;SDS011;58864;45.928;20.078;2023-03-07T00:00:54;46.23;;;19.27;;
71166;SDS011;58864;45.928;20.078;2023-03-07T00:03:18;42.87;;;17.53;;
71166;SDS011;58864;45.928;20.078;2023-03-07T00:05:43;44.38;;;17.85;;
71166;SDS011;58864;45.928;20.078;2023-03-07T00:08:08;41.47;;;16.27;;
71166;SDS011;58864;45.928;20.078;2023-03-07T00:10:33;32.85;;;14.88;;
71166;SDS011;58864;45.928;20.078;2023-03-07T00:12:57;39.40;;;17.00;;
71166;SDS011;58864;45.928;20.078;2023-03-07T00:15:22;35.03;;;15.48;;
71166;SDS011;58864;45.928;20.078;2023-03-07T00:17:46;34.47;;;15.40;;
71166;SDS011;58864;45.928;20.078;2023-03-07T00:20:11;38.00;;;16.00;;
71166;SDS011;58864;45.928;20.078;2023-03-07T00:22:37;33.45;;;15.02;;
71166;SDS011;58864;45.928;20.078;2023-03-07T00:25:02;32.07;;;14.37;;
71166;SDS011;58864;45.928;20.078;2023-03-07T00:27:28;31.80;;;14.45;;
71166;SDS011;58864;45.928;20.078;2023-03-07T00:29:54;35.00;;;15.18;;
71166;SDS011;58864;45.928;20.078;2023-03-07T00:32:18;32.90;;;15.37;;
71166;SDS011;58864;45.928;20.078;2023-03-07T00:34:42;33.07;;;15.00;;
71166;SDS011;58864;45.928;20.078;2023-03-07T00:37:07;33.08;;;14.40;;
71166;SDS011;58864;45.928;20.078;2023-03-07T00:39:31;28.60;;;13.20;;
71166;SDS011;58864;45.928;20.078;2023-03-07T00:41:56;28.50;;;12.97;;
71166;SDS011;58864;45.928;20.078;2023-03-07T00:44:21;25.25;;;12.15;;
71166;SDS011;58864;45.928;20.078;2023-03-07T00:46:45;30.13;;;12.23;;
71166;SDS011;58864;45.928;20.078;2023-03-07T00:49:10;30.63;;;12.73;;
71166;SDS011;58864;45.928;20.078;2023-03-07T00:51:34;30.63;;;13.17;;
71166;SDS011;58864;45.928;20.078;2023-03-07T00:53:58;28.38;;;13.07;;
71166;SDS011;58864;45.928;20.078;2023-03-07T00:56:24;31.90;;;13.40;;
71166;SDS011;58864;45.928;20.078;2023-03-07T00:58:49;30.45;;;13.90;;
71166;SDS011;58864;45.928;20.078;2023-03-07T01:01:15;29.05;;;12.55;;
71166;SDS011;58864;45.928;20.078;2023-03-07T01:03:41;24.77;;;11.83;;
71166;SDS011;58864;45.928;20.078;2023-03-07T01:06:09;26.42;;;11.38;;
71166;SDS011;58864;45.928;20.078;2023-03-07T01:08:36;29.90;;;12.10;;
71166;SDS011;58864;45.928;20.078;2023-03-07T01:11:01;27.60;;;12.20;;
71166;SDS011;58864;45.928;20.078;2023-03-07T01:13:27;29.30;;;12.00;;
71166;SDS011;58864;45.928;20.078;2023-03-07T01:15:52;26.15;;;12.52;;
71166;SDS011;58864;45.928;20.078;2023-03-07T01:18:17;33.33;;;13.83;;
71166;SDS011;58864;45.928;20.078;2023-03-07T01:20:41;36.53;;;14.33;;
71166;SDS011;58864;45.928;20.078;2023-03-07T01:23:06;33.63;;;14.25;;
71166;SDS011;58864;45.928;20.078;2023-03-07T01:25:30;32.60;;;14.33;;
71166;SDS011;58864;45.928;20.078;2023-03-07T01:27:55;35.97;;;14.23;;
71166;SDS011;58864;45.928;20.078;2023-03-07T01:30:20;30.23;;;13.33;;
71166;SDS011;58864;45.928;20.078;2023-03-07T01:32:45;29.73;;;12.98;;
71166;SDS011;58864;45.928;20.078;2023-03-07T01:35:11;31.65;;;12.95;;
71166;SDS011;58864;45.928;20.078;2023-03-07T01:37:36;29.23;;;12.47;;
71166;SDS011;58864;45.928;20.078;2023-03-07T01:40:00;31.03;;;12.57;;
71166;SDS011;58864;45.928;20.078;2023-03-07T01:42:25;30.83;;;14.37;;
71166;SDS011;58864;45.928;20.078;2023-03-07T01:47:21;31.30;;;13.50;;
71166;SDS011;58864;45.928;20.078;2023-03-07T01:49:46;26.65;;;12.30;;
71166;SDS011;58864;45.928;20.078;2023-03-07T01:52:14;26.80;;;11.73;;
71166;SDS011;58864;45.928;20.078;2023-03-07T01:54:45;28.30;;;12.73;;
71166;SDS011;58864;45.928;20.078;2023-03-07T01:57:11;31.92;;;13.07;;
71166;SDS011;58864;45.928;20.078;2023-03-07T01:59:38;27.43;;;11.33;;
71166;SDS011;58864;45.928;20.078;2023-03-07T02:02:06;26.13;;;10.93;;
71166;SDS011;58864;45.928;20.078;2023-03-07T02:07:14;28.30;;;10.70;;
71166;SDS011;58864;45.928;20.078;2023-03-07T02:09:39;22.42;;;9.40;;
71166;SDS011;58864;45.928;20.078;2023-03-07T02:12:05;24.98;;;10.27;;
71166;SDS011;58864;45.928;20.078;2023-03-07T02:14:29;22.17;;;10.13;;
71166;SDS011;58864;45.928;20.078;2023-03-07T02:16:54;24.40;;;10.97;;
71166;SDS011;58864;45.928;20.078;2023-03-07T02:22:13;21.75;;;8.68;;
71166;SDS011;58864;45.928;20.078;2023-03-07T02:27:16;23.08;;;9.32;;
71166;SDS011;58864;45.928;20.078;2023-03-07T02:29:41;22.87;;;9.20;;
71166;SDS011;58864;45.928;20.078;2023-03-07T02:32:06;24.10;;;9.40;;
71166;SDS011;58864;45.928;20.078;2023-03-07T02:34:31;25.35;;;10.13;;
71166;SDS011;58864;45.928;20.078;2023-03-07T02:37:00;22.70;;;9.80;;
71166;SDS011;58864;45.928;20.078;2023-03-07T02:39:28;22.48;;;10.43;;
71166;SDS011;58864;45.928;20.078;2023-03-07T02:41:53;22.67;;;10.00;;
71166;SDS011;58864;45.928;20.078;2023-03-07T02:44:18;20.33;;;9.80;;
71166;SDS011;58864;45.928;20.078;2023-03-07T02:46:42;25.47;;;10.57;;
71166;SDS011;58864;45.928;20.078;2023-03-07T02:49:07;23.27;;;10.40;;
71166;SDS011;58864;45.928;20.078;2023-03-07T02:51:31;22.63;;;10.05;;
71166;SDS011;58864;45.928;20.078;2023-03-07T02:53:56;22.57;;;10.20;;
71166;SDS011;58864;45.928;20.078;2023-03-07T02:56:20;20.37;;;9.20;;
71166;SDS011;58864;45.928;20.078;2023-03-07T02:58:45;21.00;;;9.10;;
71166;SDS011;58864;45.928;20.078;2023-03-07T03:01:09;23.13;;;10.38;;
71166;SDS011;58864;45.928;20.078;2023-03-07T03:03:34;27.40;;;10.90;;
71166;SDS011;58864;45.928;20.078;2023-03-07T03:05:58;23.27;;;9.70;;
71166;SDS011;58864;45.928;20.078;2023-03-07T03:08:22;20.37;;;8.80;;
71166;SDS011;58864;45.928;20.078;2023-03-07T03:10:51;18.48;;;8.82;;
71166;SDS011;58864;45.928;20.078;2023-03-07T03:13:16;19.83;;;7.83;;
71166;SDS011;58864;45.928;20.078;2023-03-07T03:15:40;17.50;;;7.93;;
71166;SDS011;58864;45.928;20.078;2023-03-07T03:18:05;20.20;;;8.37;;
71166;SDS011;58864;45.928;20.078;2023-03-07T03:20:29;18.17;;;7.60;;
71166;SDS011;58864;45.928;20.078;2023-03-07T03:22:54;19.10;;;7.70;;
71166;SDS011;58864;45.928;20.078;2023-03-07T03:25:18;18.47;;;7.77;;
71166;SDS011;58864;45.928;20.078;2023-03-07T03:27:46;19.43;;;8.03;;
71166;SDS011;58864;45.928;20.078;2023-03-07T03:30:11;19.13;;;8.02;;
71166;SDS011;58864;45.928;20.078;2023-03-07T03:32:36;19.07;;;7.23;;
71166;SDS011;58864;45.928;20.078;2023-03-07T03:35:01;19.23;;;7.25;;
71166;SDS011;58864;45.928;20.078;2023-03-07T03:37:25;16.97;;;7.60;;
71166;SDS011;58864;45.928;20.078;2023-03-07T03:39:51;18.67;;;8.07;;
71166;SDS011;58864;45.928;20.078;2023-03-07T03:42:17;20.23;;;7.47;;
71166;SDS011;58864;45.928;20.078;2023-03-07T03:44:41;20.60;;;7.90;;
71166;SDS011;58864;45.928;20.078;2023-03-07T03:47:06;17.83;;;6.97;;
71166;SDS011;58864;45.928;20.078;2023-03-07T03:49:30;18.97;;;7.67;;
71166;SDS011;58864;45.928;20.078;2023-03-07T03:51:56;19.45;;;7.50;;
71166;SDS011;58864;45.928;20.078;2023-03-07T03:54:20;19.43;;;7.60;;
71166;SDS011;58864;45.928;20.078;2023-03-07T03:56:44;21.00;;;8.23;;
71166;SDS011;58864;45.928;20.078;2023-03-07T03:59:09;17.73;;;7.10;;
71166;SDS011;58864;45.928;20.078;2023-03-07T04:01:33;21.27;;;7.90;;
71166;SDS011;58864;45.928;20.078;2023-03-07T04:03:58;21.03;;;8.90;;
71166;SDS011;58864;45.928;20.078;2023-03-07T04:06:26;21.50;;;8.75;;
71166;SDS011;58864;45.928;20.078;2023-03-07T04:08:52;21.73;;;8.60;;
71166;SDS011;58864;45.928;20.078;2023-03-07T04:11:18;19.83;;;8.75;;
71166;SDS011;58864;45.928;20.078;2023-03-07T04:13:43;26.67;;;10.30;;
71166;SDS011;58864;45.928;20.078;2023-03-07T04:16:08;22.60;;;9.03;;
71166;SDS011;58864;45.928;20.078;2023-03-07T04:18:33;24.77;;;9.82;;
71166;SDS011;58864;45.928;20.078;2023-03-07T04:20:58;20.25;;;7.63;;
71166;SDS011;58864;45.928;20.078;2023-03-07T04:23:22;16.77;;;6.63;;
71166;SDS011;58864;45.928;20.078;2023-03-07T04:25:48;16.90;;;7.00;;
71166;SDS011;58864;45.928;20.078;2023-03-07T04:28:14;17.05;;;6.72;;
71166;SDS011;58864;45.928;20.078;2023-03-07T04:30:42;18.27;;;7.13;;
71166;SDS011;58864;45.928;20.078;2023-03-07T04:33:06;19.35;;;6.95;;
71166;SDS011;58864;45.928;20.078;2023-03-07T04:35:31;17.37;;;7.03;;
71166;SDS011;58864;45.928;20.078;2023-03-07T04:37:55;16.37;;;6.70;;
71166;SDS011;58864;45.928;20.078;2023-03-07T04:40:20;18.33;;;7.30;;
71166;SDS011;58864;45.928;20.078;2023-03-07T04:42:44;18.47;;;6.20;;
71166;SDS011;58864;45.928;20.078;2023-03-07T04:45:09;14.15;;;5.93;;
71166;SDS011;58864;45.928;20.078;2023-03-07T04:47:33;15.10;;;6.17;;
71166;SDS011;58864;45.928;20.078;2023-03-07T04:49:58;16.50;;;6.60;;
71166;SDS011;58864;45.928;20.078;2023-03-07T04:52:22;17.63;;;6.10;;
71166;SDS011;58864;45.928;20.078;2023-03-07T04:54:47;16.77;;;6.30;;
71166;SDS011;58864;45.928;20.078;2023-03-07T04:57:11;16.50;;;6.23;;
71166;SDS011;58864;45.928;20.078;2023-03-07T04:59:35;16.65;;;7.18;;
71166;SDS011;58864;45.928;20.078;2023-03-07T05:02:02;17.37;;;6.20;;
71166;SDS011;58864;45.928;20.078;2023-03-07T05:04:26;17.65;;;6.45;;
71166;SDS011;58864;45.928;20.078;2023-03-07T05:06:51;14.53;;;6.10;;
71166;SDS011;58864;45.928;20.078;2023-03-07T05:09:15;17.40;;;6.53;;
71166;SDS011;58864;45.928;20.078;2023-03-07T05:11:39;17.80;;;6.33;;
71166;SDS011;58864;45.928;20.078;2023-03-07T05:14:04;14.88;;;6.45;;
71166;SDS011;58864;45.928;20.078;2023-03-07T05:16:28;17.13;;;6.17;;
71166;SDS011;58864;45.928;20.078;2023-03-07T05:18:53;17.53;;;7.17;;
71166;SDS011;58864;45.928;20.078;2023-03-07T05:21:17;17.33;;;7.23;;
71166;SDS011;58864;45.928;20.078;2023-03-07T05:23:42;18.50;;;6.63;;
71166;SDS011;58864;45.928;20.078;2023-03-07T05:26:06;16.73;;;7.00;;
71166;SDS011;58864;45.928;20.078;2023-03-07T05:28:30;20.53;;;7.80;;
71166;SDS011;58864;45.928;20.078;2023-03-07T05:30:55;20.47;;;8.10;;
71166;SDS011;58864;45.928;20.078;2023-03-07T05:33:19;21.08;;;7.88;;
71166;SDS011;58864;45.928;20.078;2023-03-07T05:35:44;18.47;;;7.07;;
71166;SDS011;58864;45.928;20.078;2023-03-07T05:38:08;19.00;;;7.50;;
71166;SDS011;58864;45.928;20.078;2023-03-07T05:40:33;16.52;;;7.10;;
71166;SDS011;58864;45.928;20.078;2023-03-07T05:42:58;17.52;;;6.63;;
71166;SDS011;58864;45.928;20.078;2023-03-07T05:45:22;16.37;;;7.17;;
71166;SDS011;58864;45.928;20.078;2023-03-07T05:47:47;21.37;;;10.00;;
71166;SDS011;58864;45.928;20.078;2023-03-07T05:50:11;22.00;;;9.30;;
71166;SDS011;58864;45.928;20.078;2023-03-07T05:52:36;23.52;;;9.65;;
71166;SDS011;58864;45.928;20.078;2023-03-07T05:55:01;22.15;;;8.60;;
71166;SDS011;58864;45.928;20.078;2023-03-07T05:57:25;27.50;;;10.23;;
71166;SDS011;58864;45.928;20.078;2023-03-07T05:59:50;24.67;;;8.70;;
71166;SDS011;58864;45.928;20.078;2023-03-07T06:02:14;24.50;;;9.02;;
71166;SDS011;58864;45.928;20.078;2023-03-07T06:04:39;23.50;;;9.30;;
71166;SDS011;58864;45.928;20.078;2023-03-07T06:07:03;18.87;;;7.93;;
71166;SDS011;58864;45.928;20.078;2023-03-07T06:09:28;23.90;;;9.77;;
71166;SDS011;58864;45.928;20.078;2023-03-07T06:11:52;23.90;;;9.03;;
71166;SDS011;58864;45.928;20.078;2023-03-07T06:14:17;25.03;;;9.53;;
71166;SDS011;58864;45.928;20.078;2023-03-07T06:16:41;23.53;;;9.17;;
71166;SDS011;58864;45.928;20.078;2023-03-07T06:19:06;24.20;;;8.82;;
71166;SDS011;58864;45.928;20.078;2023-03-07T06:21:30;18.90;;;8.20;;
71166;SDS011;58864;45.928;20.078;2023-03-07T06:23:54;23.10;;;9.07;;
71166;SDS011;58864;45.928;20.078;2023-03-07T06:26:19;17.65;;;8.20;;
71166;SDS011;58864;45.928;20.078;2023-03-07T06:28:43;19.53;;;8.00;;
71166;SDS011;58864;45.928;20.078;2023-03-07T06:31:12;17.67;;;7.73;;
71166;SDS011;58864;45.928;20.078;2023-03-07T06:33:38;16.45;;;7.22;;
71166;SDS011;58864;45.928;20.078;2023-03-07T06:36:06;19.07;;;8.10;;
71166;SDS011;58864;45.928;20.078;2023-03-07T06:38:31;24.00;;;8.88;;
71166;SDS011;58864;45.928;20.078;2023-03-07T06:40:56;19.57;;;8.40;;
71166;SDS011;58864;45.928;20.078;2023-03-07T06:43:20;22.58;;;9.13;;
71166;SDS011;58864;45.928;20.078;2023-03-07T06:45:45;29.17;;;11.60;;
71166;SDS011;58864;45.928;20.078;2023-03-07T06:48:09;26.07;;;11.17;;
71166;SDS011;58864;45.928;20.078;2023-03-07T06:50:34;24.87;;;10.00;;
71166;SDS011;58864;45.928;20.078;2023-03-07T06:52:58;25.48;;;10.02;;
71166;SDS011;58864;45.928;20.078;2023-03-07T06:55:22;27.97;;;11.03;;
71166;SDS011;58864;45.928;20.078;2023-03-07T06:57:47;32.97;;;12.67;;
71166;SDS011;58864;45.928;20.078;2023-03-07T07:00:12;29.48;;;11.38;;
71166;SDS011;58864;45.928;20.078;2023-03-07T07:02:37;25.30;;;9.57;;
71166;SDS011;58864;45.928;20.078;2023-03-07T07:05:02;30.05;;;13.05;;
71166;SDS011;58864;45.928;20.078;2023-03-07T07:07:26;28.45;;;12.80;;
71166;SDS011;58864;45.928;20.078;2023-03-07T07:09:51;25.70;;;10.60;;
71166;SDS011;58864;45.928;20.078;2023-03-07T07:12:16;24.50;;;10.27;;
71166;SDS011;58864;45.928;20.078;2023-03-07T07:14:41;23.53;;;10.03;;
71166;SDS011;58864;45.928;20.078;2023-03-07T07:17:05;24.42;;;10.75;;
71166;SDS011;58864;45.928;20.078;2023-03-07T07:19:30;26.30;;;11.03;;
71166;SDS011;58864;45.928;20.078;2023-03-07T07:21:54;25.60;;;10.40;;
71166;SDS011;58864;45.928;20.078;2023-03-07T07:24:20;26.87;;;11.20;;
71166;SDS011;58864;45.928;20.078;2023-03-07T07:26:44;24.45;;;11.48;;
71166;SDS011;58864;45.928;20.078;2023-03-07T07:29:08;25.60;;;11.50;;
71166;SDS011;58864;45.928;20.078;2023-03-07T07:31:33;30.33;;;12.60;;
71166;SDS011;58864;45.928;20.078;2023-03-07T07:33:57;25.20;;;11.60;;
71166;SDS011;58864;45.928;20.078;2023-03-07T07:36:23;24.73;;;11.15;;
71166;SDS011;58864;45.928;20.078;2023-03-07T07:38:48;25.83;;;11.50;;
71166;SDS011;58864;45.928;20.078;2023-03-07T07:41:13;28.80;;;12.82;;
71166;SDS011;58864;45.928;20.078;2023-03-07T07:43:37;28.53;;;11.80;;
71166;SDS011;58864;45.928;20.078;2023-03-07T07:46:04;31.23;;;12.70;;
71166;SDS011;58864;45.928;20.078;2023-03-07T07:48:29;27.92;;;11.23;;
71166;SDS011;58864;45.928;20.078;2023-03-07T07:50:54;22.38;;;10.00;;
71166;SDS011;58864;45.928;20.078;2023-03-07T07:53:23;26.93;;;11.43;;
71166;SDS011;58864;45.928;20.078;2023-03-07T07:55:47;27.98;;;11.65;;
71166;SDS011;58864;45.928;20.078;2023-03-07T07:58:12;30.97;;;11.63;;
71166;SDS011;58864;45.928;20.078;2023-03-07T08:00:36;34.43;;;12.23;;
71166;SDS011;58864;45.928;20.078;2023-03-07T08:03:01;33.47;;;14.07;;
71166;SDS011;58864;45.928;20.078;2023-03-07T08:05:26;36.90;;;14.63;;
71166;SDS011;58864;45.928;20.078;2023-03-07T08:07:50;37.63;;;15.20;;
71166;SDS011;58864;45.928;20.078;2023-03-07T08:10:15;33.28;;;14.98;;
71166;SDS011;58864;45.928;20.078;2023-03-07T08:12:47;85.47;;;34.83;;
71166;SDS011;58864;45.928;20.078;2023-03-07T08:15:14;49.77;;;19.87;;
71166;SDS011;58864;45.928;20.078;2023-03-07T08:17:40;33.95;;;15.25;;
71166;SDS011;58864;45.928;20.078;2023-03-07T08:20:04;35.50;;;15.33;;
71166;SDS011;58864;45.928;20.078;2023-03-07T08:22:33;25.25;;;10.80;;
71166;SDS011;58864;45.928;20.078;2023-03-07T08:24:58;153.18;;;51.28;;
71166;SDS011;58864;45.928;20.078;2023-03-07T08:27:22;187.90;;;62.38;;
71166;SDS011;58864;45.928;20.078;2023-03-07T08:29:48;106.97;;;37.57;;
71166;SDS011;58864;45.928;20.078;2023-03-07T08:32:13;143.05;;;44.53;;
71166;SDS011;58864;45.928;20.078;2023-03-07T08:34:38;83.90;;;28.23;;
71166;SDS011;58864;45.928;20.078;2023-03-07T08:37:02;93.95;;;31.73;;
71166;SDS011;58864;45.928;20.078;2023-03-07T08:39:27;116.27;;;37.40;;
71166;SDS011;58864;45.928;20.078;2023-03-07T08:41:51;101.53;;;33.30;;
71166;SDS011;58864;45.928;20.078;2023-03-07T08:44:18;100.07;;;36.17;;
71166;SDS011;58864;45.928;20.078;2023-03-07T08:46:42;79.77;;;28.40;;
71166;SDS011;58864;45.928;20.078;2023-03-07T08:49:06;56.13;;;21.55;;
71166;SDS011;58864;45.928;20.078;2023-03-07T08:51:31;64.07;;;23.23;;
71166;SDS011;58864;45.928;20.078;2023-03-07T08:53:56;38.87;;;14.17;;
71166;SDS011;58864;45.928;20.078;2023-03-07T08:56:22;28.70;;;10.30;;
71166;SDS011;58864;45.928;20.078;2023-03-07T08:58:46;20.27;;;8.77;;
71166;SDS011;58864;45.928;20.078;2023-03-07T09:01:11;19.63;;;7.97;;
71166;SDS011;58864;45.928;20.078;2023-03-07T09:03:38;18.02;;;7.68;;
71166;SDS011;58864;45.928;20.078;2023-03-07T09:06:03;22.80;;;9.80;;
71166;SDS011;58864;45.928;20.078;2023-03-07T09:08:28;20.30;;;8.65;;
71166;SDS011;58864;45.928;20.078;2023-03-07T09:10:52;17.67;;;7.23;;
71166;SDS011;58864;45.928;20.078;2023-03-07T09:13:17;17.50;;;7.60;;
71166;SDS011;58864;45.928;20.078;2023-03-07T09:15:42;18.15;;;8.15;;
71166;SDS011;58864;45.928;20.078;2023-03-07T09:18:07;19.70;;;7.90;;
71166;SDS011;58864;45.928;20.078;2023-03-07T09:20:31;17.13;;;7.17;;
71166;SDS011;58864;45.928;20.078;2023-03-07T09:22:56;19.17;;;9.02;;
71166;SDS011;58864;45.928;20.078;2023-03-07T09:25:21;20.53;;;9.10;;
71166;SDS011;58864;45.928;20.078;2023-03-07T09:27:46;23.70;;;8.93;;
71166;SDS011;58864;45.928;20.078;2023-03-07T09:30:11;22.33;;;9.00;;
71166;SDS011;58864;45.928;20.078;2023-03-07T09:32:36;23.58;;;10.68;;
71166;SDS011;58864;45.928;20.078;2023-03-07T09:35:00;32.03;;;15.00;;
71166;SDS011;58864;45.928;20.078;2023-03-07T09:37:25;30.55;;;13.43;;
71166;SDS011;58864;45.928;20.078;2023-03-07T09:39:49;25.53;;;11.50;;
71166;SDS011;58864;45.928;20.078;2023-03-07T09:45:45;35.25;;;14.98;;
71166;SDS011;58864;45.928;20.078;2023-03-07T09:48:29;31.10;;;14.25;;
71166;SDS011;58864;45.928;20.078;2023-03-07T09:53:44;34.70;;;13.93;;
71166;SDS011;58864;45.928;20.078;2023-03-07T09:56:14;29.88;;;12.55;;
71166;SDS011;58864;45.928;20.078;2023-03-07T09:58:43;27.23;;;11.98;;
71166;SDS011;58864;45.928;20.078;2023-03-07T10:01:11;26.70;;;12.32;;
71166;SDS011;58864;45.928;20.078;2023-03-07T10:08:53;32.33;;;14.15;;
71166;SDS011;58864;45.928;20.078;2023-03-07T10:14:07;28.30;;;12.98;;
71166;SDS011;58864;45.928;20.078;2023-03-07T10:19:15;16.77;;;7.40;;
71166;SDS011;58864;45.928;20.078;2023-03-07T10:27:28;14.57;;;6.55;;
71166;SDS011;58864;45.928;20.078;2023-03-07T10:29:54;17.17;;;6.90;;
71166;SDS011;58864;45.928;20.078;2023-03-07T10:35:18;17.38;;;7.18;;
71166;SDS011;58864;45.928;20.078;2023-03-07T10:37:48;16.05;;;8.30;;
71166;SDS011;58864;45.928;20.078;2023-03-07T10:40:19;15.43;;;8.00;;
71166;SDS011;58864;45.928;20.078;2023-03-07T10:42:49;17.07;;;8.87;;
71166;SDS011;58864;45.928;20.078;2023-03-07T10:45:15;17.52;;;8.85;;
71166;SDS011;58864;45.928;20.078;2023-03-07T10:47:40;15.45;;;7.95;;
71166;SDS011;58864;45.928;20.078;2023-03-07T10:50:21;17.77;;;7.77;;
71166;SDS011;58864;45.928;20.078;2023-03-07T10:52:54;13.70;;;5.80;;
71166;SDS011;58864;45.928;20.078;2023-03-07T11:00:45;19.23;;;7.10;;
71166;SDS011;58864;45.928;20.078;2023-03-07T11:03:30;17.60;;;6.88;;
71166;SDS011;58864;45.928;20.078;2023-03-07T11:06:01;15.27;;;6.43;;
71166;SDS011;58864;45.928;20.078;2023-03-07T11:08:30;15.27;;;6.40;;
71166;SDS011;58864;45.928;20.078;2023-03-07T11:10:55;14.40;;;5.70;;
71166;SDS011;58864;45.928;20.078;2023-03-07T11:13:21;19.52;;;7.82;;
71166;SDS011;58864;45.928;20.078;2023-03-07T11:15:46;18.70;;;8.02;;
71166;SDS011;58864;45.928;20.078;2023-03-07T11:20:53;12.80;;;6.00;;
71166;SDS011;58864;45.928;20.078;2023-03-07T11:23:25;18.00;;;7.50;;
71166;SDS011;58864;45.928;20.078;2023-03-07T11:25:50;17.27;;;7.28;;
71166;SDS011;58864;45.928;20.078;2023-03-07T11:28:27;12.67;;;5.03;;
71166;SDS011;58864;45.928;20.078;2023-03-07T11:36:08;29.83;;;11.40;;
71166;SDS011;58864;45.928;20.078;2023-03-07T11:38:40;26.92;;;11.07;;
71166;SDS011;58864;45.928;20.078;2023-03-07T11:41:27;28.50;;;10.68;;
71166;SDS011;58864;45.928;20.078;2023-03-07T11:46:27;24.08;;;9.57;;
71166;SDS011;58864;45.928;20.078;2023-03-07T11:54:24;18.52;;;8.82;;
71166;SDS011;58864;45.928;20.078;2023-03-07T11:56:53;25.50;;;10.55;;
71166;SDS011;58864;45.928;20.078;2023-03-07T11:59:42;21.70;;;9.73;;
71166;SDS011;58864;45.928;20.078;2023-03-07T12:02:36;14.03;;;6.97;;
71166;SDS011;58864;45.928;20.078;2023-03-07T12:05:13;14.40;;;6.65;;
71166;SDS011;58864;45.928;20.078;2023-03-07T12:21:21;21.30;;;10.10;;
71166;SDS011;58864;45.928;20.078;2023-03-07T12:24:07;19.98;;;9.02;;
71166;SDS011;58864;45.928;20.078;2023-03-07T12:32:01;21.10;;;10.88;;
71166;SDS011;58864;45.928;20.078;2023-03-07T12:34:49;47.03;;;27.35;;
71166;SDS011;58864;45.928;20.078;2023-03-07T12:37:24;29.00;;;15.85;;
71166;SDS011;58864;45.928;20.078;2023-03-07T12:40:01;50.30;;;32.43;;
71166;SDS011;58864;45.928;20.078;2023-03-07T12:42:55;34.00;;;16.65;;
71166;SDS011;58864;45.928;20.078;2023-03-07T12:45:25;23.70;;;10.10;;
71166;SDS011;58864;45.928;20.078;2023-03-07T13:01:00;18.45;;;11.57;;
71166;SDS011;58864;45.928;20.078;2023-03-07T13:06:15;18.57;;;8.00;;
71166;SDS011;58864;45.928;20.078;2023-03-07T13:08:43;20.25;;;8.93;;
71166;SDS011;58864;45.928;20.078;2023-03-07T13:11:17;22.65;;;10.18;;
71166;SDS011;58864;45.928;20.078;2023-03-07T13:16:09;14.70;;;7.07;;
71166;SDS011;58864;45.928;20.078;2023-03-07T13:18:35;25.95;;;11.45;;
71166;SDS011;58864;45.928;20.078;2023-03-07T13:21:13;50.17;;;40.60;;
71166;SDS011;58864;45.928;20.078;2023-03-07T13:27:13;18.08;;;10.45;;
71166;SDS011;58864;45.928;20.078;2023-03-07T13:37:55;11.00;;;5.15;;
71166;SDS011;58864;45.928;20.078;2023-03-07T13:40:21;10.65;;;4.93;;
71166;SDS011;58864;45.928;20.078;2023-03-07T13:43:01;12.23;;;5.17;;
71166;SDS011;58864;45.928;20.078;2023-03-07T13:48:00;13.75;;;5.47;;
71166;SDS011;58864;45.928;20.078;2023-03-07T13:53:02;13.30;;;6.65;;
71166;SDS011;58864;45.928;20.078;2023-03-07T13:55:37;17.48;;;8.38;;
71166;SDS011;58864;45.928;20.078;2023-03-07T13:58:26;19.10;;;8.98;;
71166;SDS011;58864;45.928;20.078;2023-03-07T14:00:52;19.83;;;10.73;;
71166;SDS011;58864;45.928;20.078;2023-03-07T14:03:26;19.30;;;8.77;;
71166;SDS011;58864;45.928;20.078;2023-03-07T14:05:53;20.35;;;9.07;;
71166;SDS011;58864;45.928;20.078;2023-03-07T14:08:19;41.53;;;14.57;;
71166;SDS011;58864;45.928;20.078;2023-03-07T14:10:46;60.30;;;24.70;;
71166;SDS011;58864;45.928;20.078;2023-03-07T14:13:18;34.03;;;15.67;;
71166;SDS011;58864;45.928;20.078;2023-03-07T14:16:16;31.33;;;16.25;;
71166;SDS011;58864;45.928;20.078;2023-03-07T14:25:08;67.70;;;27.42;;
71166;SDS011;58864;45.928;20.078;2023-03-07T14:27:46;49.72;;;23.00;;
71166;SDS011;58864;45.928;20.078;2023-03-07T14:30:23;183.15;;;135.63;;
71166;SDS011;58864;45.928;20.078;2023-03-07T14:32:49;44.65;;;26.85;;
71166;SDS011;58864;45.928;20.078;2023-03-07T14:35:18;19.73;;;10.97;;
71166;SDS011;58864;45.928;20.078;2023-03-07T14:38:04;20.63;;;9.65;;
71166;SDS011;58864;45.928;20.078;2023-03-07T14:40:55;16.33;;;9.13;;
71166;SDS011;58864;45.928;20.078;2023-03-07T14:46:26;17.20;;;7.97;;
71166;SDS011;58864;45.928;20.078;2023-03-07T14:49:03;23.03;;;10.00;;
71166;SDS011;58864;45.928;20.078;2023-03-07T14:51:48;21.35;;;9.77;;
71166;SDS011;58864;45.928;20.078;2023-03-07T14:54:14;20.00;;;8.77;;
71166;SDS011;58864;45.928;20.078;2023-03-07T14:56:40;25.00;;;9.60;;
71166;SDS011;58864;45.928;20.078;2023-03-07T14:59:05;17.67;;;9.55;;
71166;SDS011;58864;45.928;20.078;2023-03-07T15:01:30;21.00;;;9.40;;
71166;SDS011;58864;45.928;20.078;2023-03-07T15:03:58;27.63;;;12.50;;
71166;SDS011;58864;45.928;20.078;2023-03-07T15:06:23;25.10;;;12.67;;
71166;SDS011;58864;45.928;20.078;2023-03-07T15:08:50;37.88;;;15.55;;
71166;SDS011;58864;45.928;20.078;2023-03-07T15:11:19;27.70;;;11.95;;
71166;SDS011;58864;45.928;20.078;2023-03-07T15:13:51;24.17;;;11.30;;
71166;SDS011;58864;45.928;20.078;2023-03-07T15:16:35;27.55;;;13.93;;
71166;SDS011;58864;45.928;20.078;2023-03-07T15:19:08;33.53;;;15.03;;
71166;SDS011;58864;45.928;20.078;2023-03-07T15:21:41;21.80;;;9.25;;
71166;SDS011;58864;45.928;20.078;2023-03-07T15:24:22;21.25;;;9.98;;
71166;SDS011;58864;45.928;20.078;2023-03-07T15:26:53;19.38;;;10.05;;
71166;SDS011;58864;45.928;20.078;2023-03-07T15:29:22;25.98;;;10.75;;
71166;SDS011;58864;45.928;20.078;2023-03-07T15:34:24;37.10;;;17.80;;
71166;SDS011;58864;45.928;20.078;2023-03-07T15:36:53;38.28;;;18.33;;
71166;SDS011;58864;45.928;20.078;2023-03-07T15:39:27;40.30;;;19.97;;
71166;SDS011;58864;45.928;20.078;2023-03-07T15:41:58;28.20;;;12.32;;
71166;SDS011;58864;45.928;20.078;2023-03-07T15:44:26;25.77;;;12.40;;
71166;SDS011;58864;45.928;20.078;2023-03-07T15:46:52;35.50;;;15.83;;
71166;SDS011;58864;45.928;20.078;2023-03-07T15:52:15;52.95;;;22.40;;
71166;SDS011;58864;45.928;20.078;2023-03-07T15:54:48;48.65;;;19.73;;
71166;SDS011;58864;45.928;20.078;2023-03-07T15:57:15;50.23;;;21.30;;
71166;SDS011;58864;45.928;20.078;2023-03-07T15:59:46;36.90;;;17.25;;
71166;SDS011;58864;45.928;20.078;2023-03-07T16:04:59;25.55;;;11.73;;
71166;SDS011;58864;45.928;20.078;2023-03-07T16:07:25;22.65;;;10.57;;
71166;SDS011;58864;45.928;20.078;2023-03-07T16:09:49;23.67;;;11.13;;
71166;SDS011;58864;45.928;20.078;2023-03-07T16:12:15;120.10;;;50.57;;
71166;SDS011;58864;45.928;20.078;2023-03-07T16:14:41;67.60;;;28.42;;
71166;SDS011;58864;45.928;20.078;2023-03-07T16:17:16;28.37;;;14.47;;
71166;SDS011;58864;45.928;20.078;2023-03-07T16:19:42;27.42;;;14.70;;
71166;SDS011;58864;45.928;20.078;2023-03-07T16:22:16;26.17;;;14.07;;